Time;durP1;ratioP1;P1;durP2;ratioP2;P2;SDS_P1;SDS_P2;PMS_P1;PMS_P2;Temp;Humidity;BMP_temperature;BMP_pressure;BME280_temperature;BME280_humidity;BME280_pressure;Samples;Min_cycle;Max_cycle;Signal;HPM_P1;HPM_P2
2023/07/20 00:00:31;;;;;;;;;;;26.50;60.20;;;;;;5094374;28;20019;-52
2023/07/20 00:03:20;;;;;;;;;;;26.50;60.20;;;;;;5093984;28;19922;-54
2023/07/20 00:05:47;;;;;;;;;;;26.50;60.20;;;;;;5094359;28;20320;-50
2023/07/20 00:08:15;;;;;;;;;;;26.50;60.20;;;;;;5094712;28;19928;-51
2023/07/20 00:10:42;;;;;;;;;;;26.50;60.20;;;;;;5093598;28;19932;-50
2023/07/20 00:13:10;;;;;;;;;;;26.50;60.20;;;;;;5093110;28;19973;-50
2023/07/20 00:15:38;;;;;;;;;;;26.50;60.20;;;;;;5093431;28;19924;-50
2023/07/20 00:18:05;;;;;;;;;;;26.50;60.20;;;;;;5093305;28;19924;-49
2023/07/20 00:20:32;;;;;;;;;;;26.50;60.20;;;;;;5093664;28;19924;-52
2023/07/20 00:22:59;;;;;;;;;;;26.50;60.20;;;;;;5094654;28;20031;-50
2023/07/20 00:25:26;;;;;;;;;;;26.50;60.20;;;;;;5093591;28;19924;-49
2023/07/20 00:27:53;;;;;;;;;;;26.50;60.20;;;;;;5093399;28;20392;-53
2023/07/20 00:30:20;;;;;;;;;;;26.50;60.20;;;;;;5094111;28;19928;-51
2023/07/20 00:32:47;;;;;;;;;;;26.50;60.10;;;;;;5093423;28;19969;-49
2023/07/20 00:35:14;;;;;;;;;;;26.50;60.10;;;;;;5093054;28;19960;-50
2023/07/20 00:37:41;;;;;;;;;;;26.50;60.10;;;;;;5092811;28;19935;-50
2023/07/20 00:40:08;;;;;;;;;;;26.50;60.10;;;;;;5093190;28;19924;-50
2023/07/20 00:42:35;;;;;;;;;;;26.50;60.10;;;;;;5091949;28;20365;-53
2023/07/20 00:45:02;;;;;;;;;;;26.50;60.10;;;;;;5093131;28;19978;-48
2023/07/20 00:47:29;;;;;;;;;;;26.50;60.10;;;;;;5091828;28;19977;-51
2023/07/20 00:49:56;;;;;;;;;;;26.50;60.00;;;;;;5093329;28;19924;-50
2023/07/20 00:52:25;;;;;;;;;;;26.50;60.00;;;;;;5093028;28;20342;-48
2023/07/20 00:54:52;;;;;;;;;;;26.50;60.00;;;;;;5092889;28;19954;-50
2023/07/20 00:57:19;;;;;;;;;;;26.50;60.00;;;;;;5093682;28;19970;-51
2023/07/20 00:59:46;;;;;;;;;;;26.50;60.00;;;;;;5092840;28;20030;-51
2023/07/20 01:02:13;;;;;;;;;;;26.50;60.00;;;;;;5092805;28;19928;-51
2023/07/20 01:04:40;;;;;;;;;;;26.50;60.00;;;;;;5093187;28;20023;-53
2023/07/20 01:07:17;;;;;;;;;;;26.50;59.90;;;;;;5091501;28;19970;-53
2023/07/20 01:10:03;;;;;;;;;;;26.50;59.90;;;;;;5092923;28;20014;-50
2023/07/20 01:12:35;;;;;;;;;;;26.50;59.90;;;;;;5093242;28;19932;-49
2023/07/20 01:15:02;;;;;;;;;;;26.50;59.90;;;;;;5093948;28;20441;-54
2023/07/20 01:17:29;;;;;;;;;;;26.50;59.90;;;;;;5094069;28;19924;-52
2023/07/20 01:19:57;;;;;;;;;;;26.50;59.90;;;;;;5092913;28;19924;-49
2023/07/20 01:22:44;;;;;;;;;;;26.50;60.40;;;;;;5092951;28;19971;-48
2023/07/20 01:25:31;;;;;;;;;;;26.50;59.90;;;;;;5093915;28;19928;-48
2023/07/20 01:28:19;;;;;;;;;;;26.50;59.90;;;;;;5093505;28;19931;-49
2023/07/20 01:30:52;;;;;;;;;;;26.50;59.90;;;;;;5093428;28;19924;-49
2023/07/20 01:33:19;;;;;;;;;;;26.50;59.90;;;;;;5092858;28;19971;-53
2023/07/20 01:35:48;;;;;;;;;;;26.50;59.90;;;;;;5093621;28;20014;-51
2023/07/20 01:38:16;;;;;;;;;;;26.50;59.90;;;;;;5092623;28;20554;-49
2023/07/20 01:40:43;;;;;;;;;;;26.50;59.90;;;;;;5093071;28;19923;-49
2023/07/20 01:43:10;;;;;;;;;;;26.50;59.90;;;;;;5093894;28;19963;-51
2023/07/20 01:45:37;;;;;;;;;;;26.50;59.90;;;;;;5093778;28;19967;-49
2023/07/20 01:48:04;;;;;;;;;;;26.50;59.90;;;;;;5093168;28;20391;-48
2023/07/20 01:50:32;;;;;;;;;;;26.50;59.90;;;;;;5093289;28;19974;-51
2023/07/20 01:52:59;;;;;;;;;;;26.50;59.90;;;;;;5096984;28;19924;-50
2023/07/20 01:55:26;;;;;;;;;;;26.50;59.90;;;;;;5097196;28;20435;-53
2023/07/20 01:57:53;;;;;;;;;;;26.50;59.90;;;;;;5096984;28;19931;-51
2023/07/20 02:00:23;;;;;;;;;;;26.50;60.00;;;;;;5096416;28;19924;-50
2023/07/20 02:02:50;;;;;;;;;;;26.50;60.00;;;;;;5096338;28;19924;-51
2023/07/20 02:05:17;;;;;;;;;;;26.50;60.00;;;;;;5095790;28;20273;-52
2023/07/20 02:07:44;;;;;;;;;;;26.50;60.00;;;;;;5096768;28;19924;-50
2023/07/20 02:10:12;;;;;;;;;;;26.50;60.00;;;;;;5096539;28;19978;-51
2023/07/20 02:12:39;;;;;;;;;;;26.50;60.00;;;;;;5096311;28;20215;-54
2023/07/20 02:15:06;;;;;;;;;;;26.50;60.00;;;;;;5097009;28;20358;-49
2023/07/20 02:17:33;;;;;;;;;;;26.50;60.00;;;;;;5096110;28;20011;-54
2023/07/20 02:20:00;;;;;;;;;;;26.50;60.00;;;;;;5095199;28;19928;-49
2023/07/20 02:22:27;;;;;;;;;;;26.50;60.00;;;;;;5096383;28;19977;-50
2023/07/20 02:24:54;;;;;;;;;;;26.50;60.00;;;;;;5096731;28;20273;-50
2023/07/20 02:27:21;;;;;;;;;;;26.50;60.00;;;;;;5095843;28;19981;-50
2023/07/20 02:29:48;;;;;;;;;;;26.50;60.00;;;;;;5095347;28;20010;-51
2023/07/20 02:32:15;;;;;;;;;;;26.50;60.00;;;;;;5095177;28;19928;-48
2023/07/20 02:34:42;;;;;;;;;;;26.50;60.00;;;;;;5096137;28;19958;-49
2023/07/20 02:37:09;;;;;;;;;;;26.50;60.00;;;;;;5095836;28;19959;-51
2023/07/20 02:39:38;;;;;;;;;;;26.40;59.90;;;;;;5096497;28;19960;-49
2023/07/20 02:42:05;;;;;;;;;;;26.50;60.00;;;;;;5096268;28;20026;-54
2023/07/20 02:44:32;;;;;;;;;;;26.40;59.90;;;;;;5094189;28;20416;-51
2023/07/20 02:46:58;;;;;;;;;;;26.40;59.90;;;;;;5095843;28;20026;-53
2023/07/20 02:49:26;;;;;;;;;;;26.50;59.90;;;;;;5094204;28;19924;-50
2023/07/20 02:51:53;;;;;;;;;;;26.50;59.90;;;;;;5096985;28;20027;-50
2023/07/20 02:54:20;;;;;;;;;;;26.50;59.90;;;;;;5094937;28;19969;-52
2023/07/20 02:56:47;;;;;;;;;;;26.50;59.90;;;;;;5095717;28;20296;-50
2023/07/20 02:59:14;;;;;;;;;;;26.40;59.80;;;;;;5095707;28;19930;-48
2023/07/20 03:01:42;;;;;;;;;;;26.50;59.90;;;;;;5095442;28;19974;-54
2023/07/20 03:04:12;;;;;;;;;;;26.50;59.90;;;;;;5095009;28;19954;-52
2023/07/20 03:06:39;;;;;;;;;;;26.50;60.00;;;;;;5094165;28;20011;-52
2023/07/20 03:09:06;;;;;;;;;;;26.50;60.00;;;;;;5095474;28;19932;-54
2023/07/20 03:11:34;;;;;;;;;;;26.50;59.90;;;;;;5094849;28;19928;-53
2023/07/20 03:14:03;;;;;;;;;;;26.50;59.90;;;;;;5094321;28;20221;-55
2023/07/20 03:16:32;;;;;;;;;;;26.50;59.90;;;;;;5094777;28;20436;-54
2023/07/20 03:19:00;;;;;;;;;;;26.50;59.90;;;;;;5095543;28;19923;-53
2023/07/20 03:21:27;;;;;;;;;;;26.50;59.90;;;;;;5094436;28;19941;-53
2023/07/20 03:23:54;;;;;;;;;;;26.50;59.90;;;;;;5095396;28;19924;-53
2023/07/20 03:26:21;;;;;;;;;;;26.50;59.90;;;;;;5094650;28;19967;-51
2023/07/20 03:28:48;;;;;;;;;;;26.50;59.80;;;;;;5094799;28;19927;-52
2023/07/20 03:31:15;;;;;;;;;;;26.50;59.80;;;;;;5095773;28;20276;-54
2023/07/20 03:33:42;;;;;;;;;;;26.50;59.80;;;;;;5095225;28;19931;-52
2023/07/20 03:36:10;;;;;;;;;;;26.50;59.80;;;;;;5093657;28;20373;-53
2023/07/20 03:38:37;;;;;;;;;;;26.50;59.70;;;;;;5094441;28;20023;-52
2023/07/20 03:41:04;;;;;;;;;;;26.50;59.70;;;;;;5095062;28;19924;-50
2023/07/20 03:43:31;;;;;;;;;;;26.50;59.70;;;;;;5094461;28;19934;-51
2023/07/20 03:45:58;;;;;;;;;;;26.50;59.70;;;;;;5095191;28;19959;-49
2023/07/20 03:48:25;;;;;;;;;;;26.50;59.70;;;;;;5093516;28;19982;-51
2023/07/20 03:50:53;;;;;;;;;;;26.50;59.60;;;;;;5094493;28;19982;-49
2023/07/20 03:53:20;;;;;;;;;;;26.50;59.60;;;;;;5095320;28;19924;-51
2023/07/20 03:55:51;;;;;;;;;;;26.60;59.60;;;;;;5094614;28;20018;-53
2023/07/20 03:58:18;;;;;;;;;;;26.60;59.60;;;;;;5094416;28;19924;-53
2023/07/20 04:00:46;;;;;;;;;;;26.60;59.60;;;;;;5091165;28;20429;-54
2023/07/20 04:03:14;;;;;;;;;;;26.60;59.50;;;;;;5087362;28;19924;-52
2023/07/20 04:05:41;;;;;;;;;;;26.60;59.50;;;;;;5087337;28;20339;-53
2023/07/20 04:08:08;;;;;;;;;;;26.60;59.40;;;;;;5076474;28;20424;-51
2023/07/20 04:10:35;;;;;;;;;;;26.60;59.40;;;;;;5082212;28;19928;-51
2023/07/20 04:13:03;;;;;;;;;;;26.60;59.40;;;;;;5078416;28;19975;-49
2023/07/20 04:15:30;;;;;;;;;;;26.60;59.30;;;;;;5114274;28;20325;-54
2023/07/20 04:17:57;;;;;;;;;;;26.70;59.40;;;;;;5114552;28;19928;-54
2023/07/20 04:20:24;;;;;;;;;;;26.60;59.20;;;;;;5114132;28;19924;-51
2023/07/20 04:22:51;;;;;;;;;;;26.70;59.30;;;;;;5098438;28;19964;-50
2023/07/20 04:25:18;;;;;;;;;;;26.70;59.20;;;;;;5072707;28;19931;-50
2023/07/20 04:27:45;;;;;;;;;;;26.70;59.20;;;;;;5073168;28;20380;-54
2023/07/20 04:30:12;;;;;;;;;;;26.70;59.10;;;;;;5075086;28;19932;-53
2023/07/20 04:32:45;;;;;;;;;;;26.70;59.10;;;;;;5094119;28;19977;-49
2023/07/20 04:35:17;;;;;;;;;;;26.70;59.00;;;;;;5083169;28;20435;-52
2023/07/20 04:37:45;;;;;;;;;;;26.70;59.00;;;;;;5093476;28;20410;-53
2023/07/20 04:40:15;;;;;;;;;;;26.70;59.20;;;;;;5093128;28;20010;-52
2023/07/20 04:42:42;;;;;;;;;;;26.60;59.30;;;;;;5093559;28;20217;-49
2023/07/20 04:45:09;;;;;;;;;;;26.50;59.50;;;;;;5086305;28;19985;-52
2023/07/20 04:47:36;;;;;;;;;;;26.30;58.90;;;;;;5080932;28;20047;-50
2023/07/20 04:50:03;;;;;;;;;;;26.10;58.10;;;;;;5093539;28;19971;-52
2023/07/20 04:52:30;;;;;;;;;;;25.80;57.30;;;;;;5089801;28;19951;-49
2023/07/20 04:55:09;;;;;;;;;;;25.60;56.70;;;;;;5086906;28;20303;-48
2023/07/20 04:57:36;;;;;;;;;;;25.40;56.20;;;;;;5091879;28;19924;-51
2023/07/20 05:00:03;;;;;;;;;;;25.10;56.10;;;;;;5081522;28;20451;-50
2023/07/20 05:02:30;;;;;;;;;;;24.80;55.60;;;;;;5081755;28;19928;-52
2023/07/20 05:04:57;;;;;;;;;;;24.50;55.90;;;;;;5082758;28;19924;-51
2023/07/20 05:07:24;;;;;;;;;;;24.30;56.00;;;;;;5091930;28;19977;-50
2023/07/20 05:09:51;;;;;;;;;;;24.00;55.60;;;;;;5086215;28;19923;-51
2023/07/20 05:12:19;;;;;;;;;;;23.80;56.00;;;;;;5078556;28;19999;-49
2023/07/20 05:14:46;;;;;;;;;;;23.50;56.00;;;;;;5078075;28;19924;-49
2023/07/20 05:17:13;;;;;;;;;;;23.30;56.90;;;;;;5085375;28;20374;-49
2023/07/20 05:19:40;;;;;;;;;;;23.10;57.00;;;;;;5091554;28;19932;-49
2023/07/20 05:22:13;;;;;;;;;;;22.90;56.50;;;;;;5092459;28;20384;-54
2023/07/20 05:24:40;;;;;;;;;;;22.70;56.40;;;;;;5089360;28;19927;-51
2023/07/20 05:27:07;;;;;;;;;;;22.60;56.60;;;;;;5076865;28;19932;-51
2023/07/20 05:29:34;;;;;;;;;;;22.40;56.80;;;;;;5080574;28;19932;-50
2023/07/20 05:32:02;;;;;;;;;;;22.30;56.70;;;;;;5069599;28;20368;-54
2023/07/20 05:34:30;;;;;;;;;;;22.20;57.30;;;;;;5073147;28;19925;-52
2023/07/20 05:36:56;;;;;;;;;;;22.00;57.30;;;;;;5075011;28;19932;-51
2023/07/20 05:39:23;;;;;;;;;;;21.90;57.40;;;;;;5070453;28;19982;-53
2023/07/20 05:41:50;;;;;;;;;;;21.80;57.20;;;;;;5073398;28;19924;-52
2023/07/20 05:44:17;;;;;;;;;;;21.70;57.60;;;;;;5070596;28;20021;-54
2023/07/20 05:46:45;;;;;;;;;;;21.60;56.90;;;;;;5074194;28;19928;-57
2023/07/20 05:49:23;;;;;;;;;;;21.60;57.20;;;;;;5072653;28;20007;-57
2023/07/20 05:51:50;;;;;;;;;;;21.50;57.70;;;;;;5075559;28;19928;-57
2023/07/20 05:54:17;;;;;;;;;;;21.40;57.90;;;;;;5074640;28;19954;-52
2023/07/20 05:56:44;;;;;;;;;;;21.30;58.80;;;;;;5075801;28;20001;-56
2023/07/20 05:59:11;;;;;;;;;;;21.20;58.90;;;;;;5072118;28;19995;-56
2023/07/20 06:01:38;;;;;;;;;;;21.20;59.10;;;;;;5076936;28;19924;-55
2023/07/20 06:04:05;;;;;;;;;;;21.20;59.60;;;;;;5073531;28;19924;-56
2023/07/20 06:06:33;;;;;;;;;;;21.30;59.70;;;;;;5077004;28;19939;-57
2023/07/20 06:09:03;;;;;;;;;;;21.20;61.70;;;;;;5069447;28;19982;-54
2023/07/20 06:11:30;;;;;;;;;;;21.20;68.10;;;;;;5084533;28;19979;-54
2023/07/20 06:13:57;;;;;;;;;;;21.10;69.30;;;;;;5073670;28;20015;-57
2023/07/20 06:16:24;;;;;;;;;;;21.10;67.90;;;;;;5072585;28;20019;-52
2023/07/20 06:18:52;;;;;;;;;;;21.10;65.20;;;;;;5072383;28;19931;-54
2023/07/20 06:21:19;;;;;;;;;;;21.10;65.40;;;;;;5077780;28;19967;-55
2023/07/20 06:23:46;;;;;;;;;;;21.20;64.60;;;;;;5080575;28;19937;-55
2023/07/20 06:26:14;;;;;;;;;;;21.20;64.60;;;;;;5077229;28;20023;-54
2023/07/20 06:28:41;;;;;;;;;;;21.30;64.40;;;;;;5075557;28;19928;-54
2023/07/20 06:31:08;;;;;;;;;;;21.40;64.30;;;;;;5076460;28;19929;-55
2023/07/20 06:33:36;;;;;;;;;;;21.40;64.20;;;;;;5074246;28;19932;-55
2023/07/20 06:36:03;;;;;;;;;;;21.50;63.50;;;;;;5073000;28;19939;-55
2023/07/20 06:38:30;;;;;;;;;;;21.50;63.50;;;;;;5077579;28;20381;-55
2023/07/20 06:40:58;;;;;;;;;;;21.50;63.70;;;;;;5076207;28;20027;-52
2023/07/20 06:43:47;;;;;;;;;;;21.60;63.50;;;;;;5077946;28;19925;-53
2023/07/20 06:46:15;;;;;;;;;;;21.60;62.90;;;;;;5079953;28;19932;-51
2023/07/20 06:48:42;;;;;;;;;;;21.70;63.10;;;;;;5073822;28;20371;-54
2023/07/20 06:51:12;;;;;;;;;;;21.70;62.90;;;;;;5080151;28;20014;-55
2023/07/20 06:53:39;;;;;;;;;;;21.80;63.00;;;;;;5076660;28;20431;-56
2023/07/20 06:56:07;;;;;;;;;;;21.90;62.70;;;;;;5071025;28;19928;-55
2023/07/20 06:58:34;;;;;;;;;;;21.90;62.60;;;;;;5076977;28;19934;-56
2023/07/20 07:01:06;;;;;;;;;;;22.00;62.90;;;;;;5079102;28;20325;-54
2023/07/20 07:03:33;;;;;;;;;;;22.10;62.50;;;;;;5080873;28;19932;-53
2023/07/20 07:06:01;;;;;;;;;;;22.10;62.70;;;;;;5072672;28;19960;-55
2023/07/20 07:08:28;;;;;;;;;;;22.10;62.60;;;;;;5079338;28;19928;-54
2023/07/20 07:10:55;;;;;;;;;;;22.10;62.70;;;;;;5075325;28;20338;-54
2023/07/20 07:13:22;;;;;;;;;;;22.20;62.30;;;;;;5077854;28;19956;-56
2023/07/20 07:15:51;;;;;;;;;;;22.20;63.00;;;;;;5074846;28;21128;-56
2023/07/20 07:18:20;;;;;;;;;;;22.20;62.50;;;;;;5078949;28;19928;-56
2023/07/20 07:20:51;;;;;;;;;;;22.20;62.50;;;;;;5080870;28;19928;-56
2023/07/20 07:23:18;;;;;;;;;;;22.30;62.20;;;;;;5078412;28;20274;-57
2023/07/20 07:25:45;;;;;;;;;;;22.30;61.90;;;;;;5077076;28;19977;-56
2023/07/20 07:28:12;;;;;;;;;;;22.30;61.90;;;;;;5072030;28;20052;-56
2023/07/20 07:30:39;;;;;;;;;;;22.30;62.30;;;;;;5094069;28;19967;-57
2023/07/20 07:33:06;;;;;;;;;;;22.30;62.10;;;;;;5071309;28;19975;-54
2023/07/20 07:35:33;;;;;;;;;;;22.30;62.60;;;;;;5070871;28;20015;-56
2023/07/20 07:38:00;;;;;;;;;;;22.30;62.80;;;;;;5080078;28;19925;-55
2023/07/20 07:40:44;;;;;;;;;;;22.30;62.60;;;;;;5073994;28;19932;-52
2023/07/20 07:43:13;;;;;;;;;;;22.30;62.10;;;;;;5074297;28;19929;-57
2023/07/20 07:45:40;;;;;;;;;;;22.30;62.20;;;;;;5068608;28;19932;-55
2023/07/20 07:48:07;;;;;;;;;;;22.30;62.60;;;;;;5070235;28;19932;-53
2023/07/20 07:50:35;;;;;;;;;;;22.30;62.30;;;;;;5070008;28;19958;-55
2023/07/20 07:53:02;;;;;;;;;;;22.30;62.00;;;;;;5071743;28;19931;-57
2023/07/20 07:55:42;;;;;;;;;;;22.30;62.20;;;;;;5079098;28;20209;-59
2023/07/20 07:58:14;;;;;;;;;;;22.30;62.20;;;;;;5056383;28;20600;-56
2023/07/20 08:00:44;;;;;;;;;;;22.30;62.10;;;;;;5072542;28;19943;-56
2023/07/20 08:03:11;;;;;;;;;;;22.40;62.00;;;;;;5072145;28;19924;-58
2023/07/20 08:05:38;;;;;;;;;;;22.30;61.40;;;;;;5071474;28;19924;-59
2023/07/20 08:08:05;;;;;;;;;;;22.30;61.00;;;;;;5072320;28;19986;-56
2023/07/20 08:10:32;;;;;;;;;;;22.30;61.40;;;;;;5070035;28;19928;-56
2023/07/20 08:13:00;;;;;;;;;;;22.20;61.90;;;;;;5073334;28;20380;-55
2023/07/20 08:15:27;;;;;;;;;;;22.20;61.30;;;;;;5076384;28;19924;-60
2023/07/20 08:17:54;;;;;;;;;;;22.20;60.60;;;;;;5076146;28;19932;-57
2023/07/20 08:20:26;;;;;;;;;;;22.20;60.50;;;;;;5074451;28;20381;-55
2023/07/20 08:22:58;;;;;;;;;;;22.10;60.60;;;;;;5076664;28;19977;-56
2023/07/20 08:25:25;;;;;;;;;;;22.10;61.80;;;;;;5073973;28;20495;-54
2023/07/20 08:27:52;;;;;;;;;;;22.10;60.90;;;;;;5075261;28;19924;-56
2023/07/20 08:30:21;;;;;;;;;;;22.00;60.80;;;;;;5073201;28;20003;-55
2023/07/20 08:32:48;;;;;;;;;;;22.00;60.30;;;;;;5072172;28;19963;-56
2023/07/20 08:35:16;;;;;;;;;;;22.10;60.60;;;;;;5071678;28;19929;-54
2023/07/20 08:37:43;;;;;;;;;;;22.00;61.00;;;;;;5073142;28;20011;-55
2023/07/20 08:40:10;;;;;;;;;;;22.00;60.80;;;;;;5071593;28;19931;-56
2023/07/20 08:42:38;;;;;;;;;;;22.00;61.00;;;;;;5072284;28;19928;-56
2023/07/20 08:45:08;;;;;;;;;;;22.00;61.40;;;;;;5071680;28;20412;-59
2023/07/20 08:47:35;;;;;;;;;;;22.00;61.60;;;;;;5077060;28;19924;-58
2023/07/20 08:50:05;;;;;;;;;;;22.00;61.10;;;;;;5072005;28;20289;-57
2023/07/20 08:52:34;;;;;;;;;;;22.00;61.40;;;;;;5072365;28;19925;-57
2023/07/20 08:55:03;;;;;;;;;;;22.00;61.00;;;;;;5077345;28;20414;-53
2023/07/20 08:57:34;;;;;;;;;;;22.00;61.00;;;;;;5076429;28;19982;-55
2023/07/20 09:00:04;;;;;;;;;;;22.00;60.70;;;;;;5072399;28;19932;-55
2023/07/20 09:02:32;;;;;;;;;;;22.00;60.60;;;;;;5074900;28;19924;-56
2023/07/20 09:04:59;;;;;;;;;;;22.00;60.70;;;;;;5076803;28;19932;-55
2023/07/20 09:07:26;;;;;;;;;;;22.00;60.80;;;;;;5072735;28;20070;-55
2023/07/20 09:09:56;;;;;;;;;;;22.00;60.70;;;;;;5080426;28;20023;-54
2023/07/20 09:12:23;;;;;;;;;;;22.00;61.00;;;;;;5073066;28;19955;-57
2023/07/20 09:14:50;;;;;;;;;;;22.00;60.70;;;;;;5069536;28;20026;-57
2023/07/20 09:17:19;;;;;;;;;;;22.00;60.90;;;;;;5074841;28;19966;-56
2023/07/20 09:19:47;;;;;;;;;;;22.00;60.90;;;;;;5078520;28;19931;-58
2023/07/20 09:22:14;;;;;;;;;;;22.00;60.50;;;;;;5074347;28;20027;-57
2023/07/20 09:24:41;;;;;;;;;;;22.00;60.40;;;;;;5071230;28;19938;-54
2023/07/20 09:27:10;;;;;;;;;;;22.00;60.20;;;;;;5075794;28;20349;-57
2023/07/20 09:29:54;;;;;;;;;;;22.00;60.40;;;;;;5073665;28;19924;-54
2023/07/20 09:32:21;;;;;;;;;;;22.10;60.10;;;;;;5072596;28;20440;-62
2023/07/20 09:34:52;;;;;;;;;;;22.00;60.30;;;;;;5074410;28;19933;-57
2023/07/20 09:37:20;;;;;;;;;;;22.00;60.10;;;;;;5074900;28;19943;-58
2023/07/20 09:39:47;;;;;;;;;;;22.00;59.90;;;;;;5063439;28;19935;-60
2023/07/20 09:42:17;;;;;;;;;;;22.00;60.00;;;;;;5067317;28;19931;-61
2023/07/20 09:44:47;;;;;;;;;;;22.00;59.80;;;;;;5072177;28;19928;-60
2023/07/20 09:47:21;;;;;;;;;;;21.90;60.10;;;;;;5072675;28;19932;-58
2023/07/20 09:50:03;;;;;;;;;;;21.90;60.30;;;;;;5074346;28;19943;-56
2023/07/20 09:52:33;;;;;;;;;;;22.00;60.20;;;;;;5073001;28;20432;-55
2023/07/20 09:55:04;;;;;;;;;;;22.00;59.70;;;;;;5084731;28;19928;-56
2023/07/20 09:57:32;;;;;;;;;;;22.00;60.20;;;;;;5081166;28;19967;-57
2023/07/20 10:00:01;;;;;;;;;;;22.00;59.70;;;;;;5077267;28;19924;-56
2023/07/20 10:02:33;;;;;;;;;;;22.00;59.00;;;;;;5076743;28;19932;-58
2023/07/20 10:05:02;;;;;;;;;;;22.00;58.90;;;;;;5079178;28;19978;-58
2023/07/20 10:07:30;;;;;;;;;;;21.90;58.90;;;;;;5072494;28;19943;-56
2023/07/20 10:10:01;;;;;;;;;;;21.90;59.00;;;;;;5071996;28;19985;-52
2023/07/20 10:12:30;;;;;;;;;;;21.90;58.60;;;;;;5077018;28;19925;-54
2023/07/20 10:15:05;;;;;;;;;;;21.90;57.90;;;;;;5084158;28;20400;-54
2023/07/20 10:17:35;;;;;;;;;;;21.90;58.30;;;;;;5084357;28;19935;-56
2023/07/20 10:20:04;;;;;;;;;;;21.90;58.10;;;;;;5085109;28;19932;-56
2023/07/20 10:22:35;;;;;;;;;;;21.80;58.00;;;;;;5078267;28;20385;-59
2023/07/20 10:25:08;;;;;;;;;;;21.90;58.20;;;;;;5080992;28;20292;-54
2023/07/20 10:27:35;;;;;;;;;;;21.80;57.50;;;;;;5079802;28;19930;-55
2023/07/20 10:30:03;;;;;;;;;;;21.80;57.40;;;;;;5073298;28;20018;-53
2023/07/20 10:32:32;;;;;;;;;;;21.70;57.70;;;;;;5078524;28;19924;-56
2023/07/20 10:34:59;;;;;;;;;;;21.70;57.60;;;;;;5077878;28;19993;-55
2023/07/20 10:37:46;;;;;;;;;;;21.70;57.80;;;;;;5075625;28;20018;-56
2023/07/20 10:40:27;;;;;;;;;;;21.70;57.70;;;;;;5075268;28;19932;-55
2023/07/20 10:42:58;;;;;;;;;;;21.60;58.30;;;;;;5078893;28;20711;-54
2023/07/20 10:45:45;;;;;;;;;;;21.60;58.40;;;;;;5075533;28;19935;-54
2023/07/20 10:48:17;;;;;;;;;;;21.60;58.20;;;;;;5080927;28;19942;-53
2023/07/20 10:50:45;;;;;;;;;;;21.60;57.90;;;;;;5079934;28;20007;-56
2023/07/20 10:53:16;;;;;;;;;;;21.70;57.90;;;;;;5077899;28;19985;-52
2023/07/20 10:55:46;;;;;;;;;;;21.60;58.20;;;;;;5073178;28;19934;-52
2023/07/20 10:58:17;;;;;;;;;;;21.70;58.30;;;;;;5081236;28;19928;-55
2023/07/20 11:00:57;;;;;;;;;;;21.70;58.40;;;;;;5077998;28;19970;-53
2023/07/20 11:03:32;;;;;;;;;;;21.60;57.90;;;;;;5085331;28;20291;-56
2023/07/20 11:06:24;;;;;;;;;;;21.60;58.20;;;;;;5075854;28;20450;-54
2023/07/20 11:09:10;;;;;;;;;;;21.60;58.40;;;;;;5081268;28;19962;-56
2023/07/20 11:11:39;;;;;;;;;;;21.70;58.60;;;;;;5077098;28;19928;-55
2023/07/20 11:14:07;;;;;;;;;;;21.70;58.30;;;;;;5072177;28;19982;-53
2023/07/20 11:16:39;;;;;;;;;;;21.70;58.10;;;;;;5087345;28;19975;-49
2023/07/20 11:19:14;;;;;;;;;;;21.70;58.20;;;;;;5077060;28;20314;-52
2023/07/20 11:22:04;;;;;;;;;;;21.70;58.20;;;;;;5079419;28;19932;-55
2023/07/20 11:24:31;;;;;;;;;;;21.70;58.20;;;;;;5078888;28;19946;-50
2023/07/20 11:26:59;;;;;;;;;;;21.70;58.20;;;;;;5077113;28;19938;-52
2023/07/20 11:29:26;;;;;;;;;;;21.80;58.00;;;;;;5073877;28;19932;-54
2023/07/20 11:32:00;;;;;;;;;;;21.80;57.90;;;;;;5084246;28;19924;-50
2023/07/20 11:34:27;;;;;;;;;;;21.80;58.00;;;;;;5073120;28;19942;-52
2023/07/20 11:36:54;;;;;;;;;;;21.80;57.80;;;;;;5075391;28;19928;-55
2023/07/20 11:39:25;;;;;;;;;;;21.80;57.70;;;;;;5077716;28;20012;-55
2023/07/20 11:41:54;;;;;;;;;;;21.80;57.70;;;;;;5077658;28;19928;-56
2023/07/20 11:44:29;;;;;;;;;;;21.80;57.70;;;;;;5076678;28;19933;-55
2023/07/20 11:47:02;;;;;;;;;;;21.80;58.10;;;;;;5078366;28;20422;-54
2023/07/20 11:49:30;;;;;;;;;;;21.70;57.90;;;;;;5078217;28;19928;-52
2023/07/20 11:52:01;;;;;;;;;;;21.80;57.80;;;;;;5074911;28;21566;-51
2023/07/20 11:54:28;;;;;;;;;;;21.80;57.90;;;;;;5074212;28;19924;-54
2023/07/20 11:56:56;;;;;;;;;;;21.80;58.00;;;;;;5073102;28;20316;-52
2023/07/20 11:59:23;;;;;;;;;;;21.80;57.70;;;;;;5078626;28;19931;-51
2023/07/20 12:01:50;;;;;;;;;;;21.90;57.70;;;;;;5074581;28;19956;-55
2023/07/20 12:04:17;;;;;;;;;;;21.90;57.90;;;;;;5072268;28;19931;-54
2023/07/20 12:06:45;;;;;;;;;;;21.90;57.70;;;;;;5072002;28;19932;-54
2023/07/20 12:09:16;;;;;;;;;;;21.90;57.70;;;;;;5077842;28;20014;-53
2023/07/20 12:11:47;;;;;;;;;;;21.90;57.80;;;;;;5076314;28;20441;-53
2023/07/20 12:14:14;;;;;;;;;;;21.90;58.00;;;;;;5078929;28;20091;-56
2023/07/20 12:16:44;;;;;;;;;;;21.90;57.80;;;;;;5077485;28;19925;-53
2023/07/20 12:19:12;;;;;;;;;;;21.90;57.90;;;;;;5077540;28;19924;-55
2023/07/20 12:21:40;;;;;;;;;;;22.00;58.00;;;;;;5087080;28;19976;-55
2023/07/20 12:24:09;;;;;;;;;;;22.00;58.00;;;;;;5079448;28;19987;-57
2023/07/20 12:26:36;;;;;;;;;;;22.00;57.90;;;;;;5079189;28;19981;-52
2023/07/20 12:29:03;;;;;;;;;;;22.00;57.80;;;;;;5078969;28;19973;-56
2023/07/20 12:31:31;;;;;;;;;;;22.00;57.40;;;;;;5075901;28;19954;-54
2023/07/20 12:34:02;;;;;;;;;;;22.00;57.70;;;;;;5077105;28;19931;-53
2023/07/20 12:36:29;;;;;;;;;;;22.00;57.40;;;;;;5079980;28;19985;-54
2023/07/20 12:38:55;;;;;;;;;;;22.00;57.40;;;;;;5081412;28;20365;-52
2023/07/20 12:41:23;;;;;;;;;;;22.00;57.80;;;;;;5079811;28;20510;-50
2023/07/20 12:43:49;;;;;;;;;;;21.90;57.40;;;;;;5072031;28;19938;-56
2023/07/20 12:46:16;;;;;;;;;;;21.90;57.40;;;;;;5071280;28;19990;-51
2023/07/20 12:48:44;;;;;;;;;;;21.90;57.40;;;;;;5076491;28;20011;-53
2023/07/20 12:51:14;;;;;;;;;;;21.90;57.40;;;;;;5079170;28;19932;-50
2023/07/20 12:53:42;;;;;;;;;;;21.90;57.30;;;;;;5072713;28;19935;-51
2023/07/20 12:56:09;;;;;;;;;;;21.90;57.10;;;;;;5082080;28;20438;-53
2023/07/20 12:58:39;;;;;;;;;;;21.90;57.10;;;;;;5069600;28;19924;-52
2023/07/20 13:01:06;;;;;;;;;;;21.90;56.80;;;;;;5077882;28;19927;-53
2023/07/20 13:03:33;;;;;;;;;;;21.90;56.70;;;;;;5068866;28;19928;-53
2023/07/20 13:06:00;;;;;;;;;;;21.90;57.00;;;;;;5068793;28;20380;-51
2023/07/20 13:08:30;;;;;;;;;;;21.90;56.80;;;;;;5076689;28;19951;-52
2023/07/20 13:10:57;;;;;;;;;;;21.90;56.90;;;;;;5070004;28;19935;-55
2023/07/20 13:13:24;;;;;;;;;;;21.90;56.90;;;;;;5067180;28;19928;-54
2023/07/20 13:15:51;;;;;;;;;;;21.90;56.70;;;;;;5075676;28;19924;-53
2023/07/20 13:18:18;;;;;;;;;;;21.90;56.70;;;;;;5076022;28;20839;-50
2023/07/20 13:20:45;;;;;;;;;;;21.90;56.10;;;;;;5070105;28;20027;-51
2023/07/20 13:23:12;;;;;;;;;;;22.00;56.20;;;;;;5072751;28;20011;-53
2023/07/20 13:25:39;;;;;;;;;;;22.00;56.20;;;;;;5074222;28;19931;-50
2023/07/20 13:28:06;;;;;;;;;;;22.00;56.00;;;;;;5072306;28;20041;-53
2023/07/20 13:30:33;;;;;;;;;;;22.00;56.20;;;;;;5079007;28;19986;-53
2023/07/20 13:33:00;;;;;;;;;;;22.00;56.00;;;;;;5078602;28;19967;-52
2023/07/20 13:35:32;;;;;;;;;;;22.00;55.80;;;;;;5071846;28;19974;-52
2023/07/20 13:38:02;;;;;;;;;;;22.10;56.10;;;;;;5073487;28;19934;-54
2023/07/20 13:40:29;;;;;;;;;;;22.10;55.70;;;;;;5073868;28;19928;-53
2023/07/20 13:42:56;;;;;;;;;;;22.10;55.80;;;;;;5072251;28;20043;-57
2023/07/20 13:45:23;;;;;;;;;;;22.30;57.90;;;;;;5075157;28;19932;-56
2023/07/20 13:47:50;;;;;;;;;;;22.40;57.80;;;;;;5075334;28;19985;-53
2023/07/20 13:50:20;;;;;;;;;;;22.60;57.50;;;;;;5080484;28;20350;-53
2023/07/20 13:52:50;;;;;;;;;;;22.80;57.00;;;;;;5074700;28;19966;-57
2023/07/20 13:55:17;;;;;;;;;;;23.00;56.50;;;;;;5075101;28;19932;-57
2023/07/20 13:58:04;;;;;;;;;;;23.10;56.10;;;;;;5073052;28;19924;-57
2023/07/20 14:00:33;;;;;;;;;;;23.20;55.50;;;;;;5074102;28;19929;-56
2023/07/20 14:03:01;;;;;;;;;;;23.30;55.30;;;;;;5071987;28;20020;-52
2023/07/20 14:05:31;;;;;;;;;;;23.40;60.70;;;;;;5079977;28;19925;-55
2023/07/20 14:08:04;;;;;;;;;;;23.50;63.80;;;;;;5071330;28;20299;-55
2023/07/20 14:10:30;;;;;;;;;;;23.70;65.60;;;;;;5078008;28;19968;-58
2023/07/20 14:12:57;;;;;;;;;;;23.90;66.70;;;;;;5073803;28;20419;-55
2023/07/20 14:15:24;;;;;;;;;;;24.10;67.10;;;;;;5074041;28;20448;-57
2023/07/20 14:17:51;;;;;;;;;;;24.30;67.50;;;;;;5072590;28;19971;-54
2023/07/20 14:20:20;;;;;;;;;;;24.40;67.50;;;;;;5074838;28;19928;-58
2023/07/20 14:22:48;;;;;;;;;;;24.50;67.10;;;;;;5073745;28;19931;-54
2023/07/20 14:25:17;;;;;;;;;;;24.70;66.80;;;;;;5072695;28;19924;-54